createdAt,value
2023-05-22T00:02:59.896Z,81.99
2023-05-22T00:05:53.343Z,82.24
2023-05-22T00:08:46.253Z,82.27
2023-05-22T00:11:39.936Z,82.06
2023-05-22T00:14:32.259Z,82.20
2023-05-22T00:17:26.841Z,82.53
2023-05-22T00:20:18.326Z,82.85
2023-05-22T00:23:12.625Z,82.87
2023-05-22T00:26:06.927Z,82.87
2023-05-22T00:28:59.707Z,82.89
2023-05-22T00:31:52.556Z,82.71
2023-05-22T00:34:45.480Z,82.56
2023-05-22T00:37:38.340Z,82.55
2023-05-22T00:40:24.371Z,82.71
2023-05-22T00:43:17.502Z,83.05
2023-05-22T00:46:10.213Z,83.15
2023-05-22T00:49:02.150Z,83.37
2023-05-22T00:51:48.744Z,83.31
2023-05-22T00:54:41.681Z,83.39
2023-05-22T00:57:35.789Z,83.53
2023-05-22T01:00:22.675Z,83.64
2023-05-22T01:03:16.087Z,83.65
2023-05-22T01:06:09.689Z,83.71
2023-05-22T01:09:03.386Z,83.79
2023-05-22T01:12:02.757Z,83.93
2023-05-22T01:15:02.889Z,84.22
2023-05-22T01:18:05.675Z,84.22
2023-05-22T01:21:04.818Z,84.22
2023-05-22T01:24:18.787Z,84.14
2023-05-22T01:27:56.684Z,84.40
2023-05-22T01:31:03.449Z,84.49
2023-05-22T01:33:58.558Z,84.62
2023-05-22T01:36:54.553Z,84.85
2023-05-22T01:39:48.155Z,84.84
2023-05-22T01:42:35.406Z,84.95
2023-05-22T01:45:27.406Z,84.94
2023-05-22T01:48:20.726Z,85.02
2023-05-22T01:51:13.806Z,85.05
2023-05-22T01:54:18.224Z,85.27
2023-05-22T01:57:14.714Z,85.28
2023-05-22T02:00:14.529Z,85.35
2023-05-22T02:02:55.459Z,85.27
2023-05-22T02:05:47.118Z,85.29
2023-05-22T02:08:43.104Z,85.24
2023-05-22T02:11:39.564Z,85.28
2023-05-22T02:14:32.833Z,85.16
2023-05-22T02:17:24.679Z,85.23
2023-05-22T02:20:18.166Z,85.33
2023-05-22T02:23:11.286Z,85.35
2023-05-22T02:26:07.195Z,85.83
2023-05-22T02:28:58.906Z,85.93
2023-05-22T02:31:52.885Z,85.97
2023-05-22T02:34:45.610Z,86.24
2023-05-22T02:37:38.856Z,86.24
2023-05-22T02:40:31.910Z,86.15
2023-05-22T02:43:25.629Z,86.26
2023-05-22T02:46:11.077Z,86.51
2023-05-22T02:49:03.760Z,86.31
2023-05-22T02:51:56.448Z,86.40
2023-05-22T02:54:50.624Z,86.51
2023-05-22T02:57:43.377Z,86.63
2023-05-22T03:00:35.860Z,86.76
2023-05-22T03:03:29.775Z,86.85
2023-05-22T03:06:17.729Z,86.82
2023-05-22T03:09:10.598Z,86.62
2023-05-22T03:12:03.548Z,86.65
2023-05-22T03:14:56.563Z,86.78
2023-05-22T03:17:49.598Z,86.84
2023-05-22T03:20:42.323Z,86.77
2023-05-22T03:23:36.753Z,86.54
2023-05-22T03:26:29.765Z,86.52
2023-05-22T03:29:22.798Z,86.33
2023-05-22T03:32:15.682Z,86.14
2023-05-22T03:35:09.844Z,86.05
2023-05-22T03:38:02.522Z,86.15
2023-05-22T03:40:55.447Z,85.81
2023-05-22T03:43:42.113Z,85.65
2023-05-22T03:46:37.189Z,85.61
2023-05-22T03:49:29.989Z,85.56
2023-05-22T03:52:23.291Z,85.35
2023-05-22T03:55:16.454Z,85.08
2023-05-22T03:58:09.220Z,84.85
2023-05-22T04:01:02.243Z,84.34
2023-05-22T04:03:55.468Z,83.93
2023-05-22T04:06:51.040Z,83.84
2023-05-22T04:09:38.153Z,83.41
2023-05-22T04:12:29.605Z,82.67
2023-05-22T04:15:24.190Z,82.62
2023-05-22T04:18:19.289Z,82.24
2023-05-22T04:21:12.650Z,81.75
2023-05-22T04:23:58.686Z,81.33
2023-05-22T04:26:51.304Z,80.74
2023-05-22T04:29:45.505Z,79.66
2023-05-22T04:32:33.076Z,78.43
2023-05-22T04:35:29.786Z,76.78
2023-05-22T04:38:16.220Z,75.69
2023-05-22T04:41:02.467Z,74.49
2023-05-22T04:43:55.632Z,72.45
2023-05-22T04:46:48.460Z,70.17
2023-05-22T04:49:34.068Z,68.51
2023-05-22T04:52:26.769Z,66.68
2023-05-22T04:55:20.780Z,63.74
2023-05-22T04:58:13.854Z,61.91
2023-05-22T05:01:06.932Z,61.59
2023-05-22T05:03:59.653Z,59.42
2023-05-22T05:06:55.190Z,58.67
2023-05-22T05:09:47.633Z,57.63
2023-05-22T05:12:40.599Z,55.72
2023-05-22T05:15:35.402Z,54.60
2023-05-22T05:18:29.204Z,54.24
2023-05-22T05:21:28.033Z,55.34
2023-05-22T05:24:20.901Z,55.80
2023-05-22T05:27:07.462Z,55.49
2023-05-22T05:30:00.780Z,55.71
2023-05-22T05:32:53.889Z,56.75
2023-05-22T05:35:50.540Z,57.57
2023-05-22T05:38:43.551Z,57.99
2023-05-22T05:41:36.705Z,57.49
2023-05-22T05:44:29.627Z,57.50
2023-05-22T05:47:24.316Z,58.11
2023-05-22T05:50:12.683Z,57.26
2023-05-22T05:53:05.557Z,57.20
2023-05-22T05:55:58.536Z,57.18
2023-05-22T05:58:51.646Z,57.02
2023-05-22T06:01:46.023Z,57.18
2023-05-22T06:04:38.819Z,56.50
2023-05-22T06:07:29.795Z,56.37
2023-05-22T06:10:22.501Z,56.46
2023-05-22T06:13:15.556Z,56.30
2023-05-22T06:16:09.110Z,56.10
2023-05-22T06:19:02.697Z,56.61
2023-05-22T06:21:51.491Z,56.21
2023-05-22T06:24:45.260Z,56.21
2023-05-22T06:27:38.286Z,55.95
2023-05-22T06:30:39.552Z,54.47
2023-05-22T06:33:34.631Z,54.56
2023-05-22T06:36:27.917Z,53.98
2023-05-22T06:39:22.986Z,54.85
2023-05-22T06:42:21.508Z,54.60
2023-05-22T06:45:15.076Z,54.15
2023-05-22T06:47:57.830Z,53.71
2023-05-22T06:50:50.694Z,52.69
2023-05-22T06:53:36.725Z,53.07
2023-05-22T06:56:12.511Z,52.98
2023-05-22T06:59:09.615Z,53.73
2023-05-22T07:02:02.512Z,54.47
2023-05-22T07:04:56.241Z,55.37
2023-05-22T07:07:54.063Z,54.53
2023-05-22T07:10:45.742Z,53.66
2023-05-22T07:13:21.122Z,53.73
2023-05-22T07:16:04.146Z,52.73
2023-05-22T07:18:48.523Z,52.14
2023-05-22T07:21:35.876Z,53.42
2023-05-22T07:24:29.131Z,54.02
2023-05-22T07:27:22.460Z,51.80
2023-05-22T07:30:16.358Z,51.42
2023-05-22T07:32:49.243Z,51.34
2023-05-22T07:35:24.755Z,50.96
2023-05-22T07:38:07.506Z,51.81
2023-05-22T07:40:40.962Z,52.03
2023-05-22T07:43:33.957Z,52.81
2023-05-22T07:46:27.121Z,51.50
2023-05-22T07:49:04.107Z,49.81
2023-05-22T07:51:37.048Z,50.04
2023-05-22T07:54:13.588Z,48.98
2023-05-22T07:56:58.209Z,49.01
2023-05-22T07:59:34.092Z,48.04
2023-05-22T08:02:11.572Z,48.83
2023-05-22T08:04:44.854Z,48.92
2023-05-22T08:07:20.731Z,49.07
2023-05-22T08:09:56.234Z,47.63
2023-05-22T08:12:30.112Z,48.88
2023-05-22T08:15:06.480Z,49.30
2023-05-22T08:17:40.986Z,49.48
2023-05-22T08:20:26.662Z,48.68
2023-05-22T08:23:19.547Z,47.27
2023-05-22T08:25:54.576Z,47.25
2023-05-22T08:28:32.635Z,47.20
2023-05-22T08:31:05.370Z,47.22
2023-05-22T08:33:41.120Z,48.07
2023-05-22T08:36:14.748Z,48.72
2023-05-22T08:38:50.277Z,47.48
2023-05-22T08:41:22.826Z,47.84
2023-05-22T08:44:07.884Z,47.67
2023-05-22T08:46:44.398Z,47.85
2023-05-22T08:49:27.537Z,47.54
2023-05-22T08:52:14.800Z,47.76
2023-05-22T08:54:54.199Z,45.78
2023-05-22T08:57:32.640Z,45.64
2023-05-22T09:00:06.417Z,46.08
2023-05-22T09:02:40.960Z,46.75
2023-05-22T09:05:15.285Z,45.93
2023-05-22T09:07:49.024Z,45.43
2023-05-22T09:10:21.666Z,47.41
2023-05-22T09:13:07.767Z,46.39
2023-05-22T09:15:42.572Z,45.30
2023-05-22T09:18:35.213Z,46.84
2023-05-22T09:21:21.402Z,45.60
2023-05-22T09:24:09.231Z,45.56
2023-05-22T09:26:44.633Z,45.26
2023-05-22T09:29:17.495Z,46.24
2023-05-22T09:31:50.502Z,46.26
2023-05-22T09:34:45.203Z,45.69
2023-05-22T09:37:18.402Z,45.20
2023-05-22T09:39:56.603Z,44.84
2023-05-22T09:42:40.749Z,44.37
2023-05-22T09:45:14.659Z,44.44
2023-05-22T09:48:09.952Z,44.53
2023-05-22T09:50:42.489Z,44.77
2023-05-22T09:53:21.054Z,44.93
2023-05-22T09:55:57.093Z,42.71
2023-05-22T09:58:34.969Z,43.09
2023-05-22T10:01:14.190Z,44.91
2023-05-22T10:03:49.801Z,43.26
2023-05-22T10:06:24.710Z,42.77
2023-05-22T10:09:18.866Z,42.74
2023-05-22T10:11:56.460Z,44.60
2023-05-22T10:14:30.908Z,42.34
2023-05-22T10:17:13.654Z,42.32
2023-05-22T10:19:50.898Z,42.45
2023-05-22T10:22:29.015Z,41.27
2023-05-22T10:25:12.598Z,40.87
2023-05-22T10:27:46.004Z,41.50
2023-05-22T10:30:24.578Z,40.67
2023-05-22T10:33:31.090Z,40.12
2023-05-22T10:36:09.137Z,40.12
2023-05-22T10:39:12.617Z,40.91
2023-05-22T10:41:45.881Z,40.26
2023-05-22T10:44:19.838Z,39.94
2023-05-22T10:46:52.953Z,39.61
2023-05-22T10:49:26.465Z,39.62
2023-05-22T10:52:01.816Z,40.37
2023-05-22T10:54:46.070Z,40.27
2023-05-22T10:57:20.799Z,39.54
2023-05-22T11:00:07.638Z,39.20
2023-05-22T11:02:47.124Z,40.65
2023-05-22T11:05:39.011Z,39.50
2023-05-22T11:08:37.494Z,39.38
2023-05-22T11:11:16.357Z,39.15
2023-05-22T11:13:55.000Z,39.49
2023-05-22T11:16:32.676Z,38.58
2023-05-22T11:19:22.457Z,38.67
2023-05-22T11:22:18.707Z,37.12
2023-05-22T11:25:21.127Z,36.89
2023-05-22T11:28:10.525Z,37.31
2023-05-22T11:31:03.857Z,37.31
2023-05-22T11:33:56.956Z,37.69
2023-05-22T11:36:52.759Z,37.95
2023-05-22T11:39:37.816Z,38.72
2023-05-22T11:42:30.175Z,38.86
2023-05-22T11:45:24.706Z,37.66
2023-05-22T11:48:20.909Z,37.86
2023-05-22T11:51:09.124Z,38.82
2023-05-22T11:53:55.691Z,39.10
2023-05-22T11:56:31.738Z,39.00
2023-05-22T11:59:18.791Z,39.00
2023-05-22T12:02:05.213Z,38.88
2023-05-22T12:04:49.561Z,38.93
2023-05-22T12:07:42.866Z,37.69
2023-05-22T12:10:29.660Z,39.00
2023-05-22T12:13:30.497Z,38.37
2023-05-22T12:16:23.215Z,36.10
2023-05-22T12:19:08.008Z,35.81
2023-05-22T12:22:01.634Z,35.02
2023-05-22T12:24:48.241Z,36.75
2023-05-22T12:27:41.119Z,36.58
2023-05-22T12:30:43.211Z,36.44
2023-05-22T12:33:31.902Z,36.13
2023-05-22T12:36:38.619Z,36.61
2023-05-22T12:39:31.082Z,36.45
2023-05-22T12:42:16.467Z,36.72
2023-05-22T12:45:00.901Z,36.33
2023-05-22T12:47:46.434Z,36.23
2023-05-22T12:50:40.699Z,35.39
2023-05-22T12:53:27.947Z,36.36
2023-05-22T12:56:20.634Z,36.62
2023-05-22T12:59:14.055Z,35.19
2023-05-22T13:02:07.167Z,35.27
2023-05-22T13:05:01.213Z,36.59
2023-05-22T13:07:54.083Z,34.64
2023-05-22T13:10:47.324Z,33.70
2023-05-22T13:13:19.814Z,34.41
2023-05-22T13:16:12.740Z,33.72
2023-05-22T13:19:05.762Z,33.77
2023-05-22T13:21:58.681Z,34.90
2023-05-22T13:24:51.317Z,34.97
2023-05-22T13:27:27.741Z,35.34
2023-05-22T13:30:20.448Z,34.95
2023-05-22T13:33:13.825Z,34.01
2023-05-22T13:36:02.699Z,34.75
2023-05-22T13:38:56.605Z,34.42
2023-05-22T13:41:42.156Z,33.78
2023-05-22T13:44:35.130Z,33.70
2023-05-22T13:47:30.239Z,33.33
2023-05-22T13:50:13.741Z,32.63
2023-05-22T13:53:07.195Z,33.02
2023-05-22T13:55:49.901Z,33.29
2023-05-22T13:58:42.270Z,32.87
2023-05-22T14:01:34.760Z,33.77
2023-05-22T14:04:27.765Z,34.09
2023-05-22T14:07:13.959Z,34.35
2023-05-22T14:10:05.561Z,34.66
2023-05-22T14:12:58.734Z,32.42
2023-05-22T14:15:51.661Z,33.61
2023-05-22T14:18:44.726Z,33.84
2023-05-22T14:21:40.393Z,33.76
2023-05-22T14:24:32.998Z,34.23
2023-05-22T14:27:18.535Z,33.41
2023-05-22T14:30:13.955Z,32.44
2023-05-22T14:32:59.583Z,32.32
2023-05-22T14:35:42.463Z,32.59
2023-05-22T14:38:37.140Z,32.72
2023-05-22T14:41:19.557Z,32.77
2023-05-22T14:44:12.284Z,32.21
2023-05-22T14:47:04.859Z,32.37
2023-05-22T14:49:51.701Z,32.91
2023-05-22T14:52:44.031Z,31.97
2023-05-22T14:55:35.599Z,33.06
2023-05-22T14:58:27.396Z,33.06
2023-05-22T15:01:20.671Z,32.95
2023-05-22T15:04:13.856Z,32.33
2023-05-22T15:07:00.404Z,33.30
2023-05-22T15:09:52.945Z,32.99
2023-05-22T15:12:39.771Z,34.02
2023-05-22T15:15:33.066Z,33.90
2023-05-22T15:18:27.059Z,33.58
2023-05-22T15:21:13.929Z,34.43
2023-05-22T15:24:00.958Z,34.06
2023-05-22T15:26:54.167Z,34.74
2023-05-22T15:29:49.797Z,34.91
2023-05-22T15:32:36.351Z,34.04
2023-05-22T15:35:22.019Z,34.63
2023-05-22T15:38:10.908Z,34.21
2023-05-22T15:41:03.876Z,34.98
2023-05-22T15:43:49.161Z,35.70
2023-05-22T15:46:42.039Z,35.13
2023-05-22T15:49:24.855Z,34.01
2023-05-22T15:52:17.857Z,34.41
2023-05-22T15:55:05.431Z,34.95
2023-05-22T15:57:59.329Z,35.42
2023-05-22T16:00:53.599Z,35.62
2023-05-22T16:03:46.850Z,36.11
2023-05-22T16:06:34.233Z,35.99
2023-05-22T16:09:26.960Z,35.73
2023-05-22T16:12:21.276Z,35.74
2023-05-22T16:15:16.264Z,35.17
2023-05-22T16:18:11.978Z,35.65
2023-05-22T16:20:57.662Z,36.31
2023-05-22T16:23:50.214Z,37.10
2023-05-22T16:26:40.659Z,37.41
2023-05-22T16:29:33.966Z,37.45
2023-05-22T16:32:26.935Z,37.91
2023-05-22T16:35:22.273Z,38.51
2023-05-22T16:38:11.971Z,38.01
2023-05-22T16:40:49.462Z,38.58
2023-05-22T16:43:42.252Z,39.03
2023-05-22T16:46:27.928Z,39.73
2023-05-22T16:49:20.935Z,40.74
2023-05-22T16:52:13.898Z,40.51
2023-05-22T16:54:54.890Z,40.71
2023-05-22T16:57:39.793Z,40.58
2023-05-22T17:00:33.107Z,40.35
2023-05-22T17:03:27.399Z,39.53
2023-05-22T17:06:21.139Z,39.51
2023-05-22T17:09:14.544Z,39.27
2023-05-22T17:12:09.006Z,39.28
2023-05-22T17:14:54.232Z,39.56
2023-05-22T17:17:47.220Z,39.91
2023-05-22T17:20:34.354Z,40.34
2023-05-22T17:23:17.774Z,40.47
2023-05-22T17:25:55.315Z,41.29
2023-05-22T17:28:46.812Z,41.88
2023-05-22T17:31:42.925Z,43.15
2023-05-22T17:34:36.413Z,43.83
2023-05-22T17:37:21.779Z,44.86
2023-05-22T17:40:14.931Z,45.47
2023-05-22T17:43:07.398Z,46.27
2023-05-22T17:45:59.143Z,46.81
2023-05-22T17:48:53.971Z,47.35
2023-05-22T17:51:46.857Z,48.03
2023-05-22T17:54:41.104Z,48.64
2023-05-22T17:57:34.118Z,48.93
2023-05-22T18:00:27.193Z,49.51
2023-05-22T18:03:36.254Z,49.76
2023-05-22T18:06:27.224Z,49.66
2023-05-22T18:09:19.291Z,50.52
2023-05-22T18:12:27.890Z,51.25
2023-05-22T18:15:24.611Z,51.47
2023-05-22T18:18:07.990Z,52.20
2023-05-22T18:21:04.814Z,52.75
2023-05-22T18:23:42.455Z,53.01
2023-05-22T18:26:35.031Z,54.17
2023-05-22T18:29:21.230Z,54.51
2023-05-22T18:32:03.411Z,55.54
2023-05-22T18:34:52.414Z,56.40
2023-05-22T18:37:31.004Z,56.90
2023-05-22T18:40:09.679Z,57.74
2023-05-22T18:43:02.222Z,58.31
2023-05-22T18:45:59.815Z,58.87
2023-05-22T18:48:52.520Z,59.50
2023-05-22T18:51:37.184Z,59.77
2023-05-22T18:54:21.810Z,60.26
2023-05-22T18:56:57.041Z,61.05
2023-05-22T18:59:29.593Z,61.51
2023-05-22T19:02:04.992Z,62.26
2023-05-22T19:04:42.917Z,62.51
2023-05-22T19:07:29.695Z,62.67
2023-05-22T19:10:02.242Z,62.98
2023-05-22T19:12:55.131Z,63.64
2023-05-22T19:15:39.584Z,64.49
2023-05-22T19:18:33.081Z,64.83
2023-05-22T19:21:17.070Z,65.22
2023-05-22T19:24:04.113Z,66.17
2023-05-22T19:26:36.873Z,67.30
2023-05-22T19:29:13.023Z,67.32
2023-05-22T19:31:49.579Z,67.34
2023-05-22T19:34:25.818Z,67.72
2023-05-22T19:37:09.002Z,67.93
2023-05-22T19:39:56.519Z,67.81
2023-05-22T19:42:47.817Z,68.33
2023-05-22T19:45:41.775Z,68.20
2023-05-22T19:48:35.791Z,68.39
2023-05-22T19:51:22.435Z,68.61
2023-05-22T19:54:15.375Z,69.05
2023-05-22T19:57:08.740Z,69.82
2023-05-22T20:00:00.662Z,70.16
2023-05-22T20:02:37.247Z,70.51
2023-05-22T20:05:29.922Z,70.79
2023-05-22T20:08:14.588Z,71.00
2023-05-22T20:11:08.779Z,71.32
2023-05-22T20:13:55.930Z,71.58
2023-05-22T20:16:51.827Z,71.91
2023-05-22T20:19:45.310Z,72.45
2023-05-22T20:22:31.664Z,72.53
2023-05-22T20:25:17.367Z,72.49
2023-05-22T20:28:04.443Z,73.16
2023-05-22T20:30:57.572Z,73.27
2023-05-22T20:33:42.959Z,73.50
2023-05-22T20:36:16.690Z,74.70
2023-05-22T20:39:11.934Z,75.09
2023-05-22T20:42:04.919Z,74.83
2023-05-22T20:44:43.045Z,74.70
2023-05-22T20:47:28.946Z,74.87
2023-05-22T20:50:21.700Z,75.05
2023-05-22T20:53:14.549Z,75.20
2023-05-22T20:55:54.246Z,75.20
2023-05-22T20:58:40.174Z,75.45
2023-05-22T21:01:33.389Z,75.65
2023-05-22T21:04:25.486Z,76.12
2023-05-22T21:07:18.564Z,76.36
2023-05-22T21:10:13.708Z,76.27
2023-05-22T21:13:09.248Z,76.36
2023-05-22T21:16:02.942Z,76.62
2023-05-22T21:18:56.033Z,76.75
2023-05-22T21:21:44.871Z,76.90
2023-05-22T21:24:27.928Z,77.03
2023-05-22T21:27:13.197Z,77.54
2023-05-22T21:30:07.743Z,77.55
2023-05-22T21:33:01.251Z,77.52
2023-05-22T21:35:53.964Z,77.83
2023-05-22T21:38:39.569Z,77.86
2023-05-22T21:41:32.557Z,78.08
2023-05-22T21:44:25.485Z,78.23
2023-05-22T21:47:18.452Z,78.55
2023-05-22T21:50:12.628Z,78.59
2023-05-22T21:53:05.578Z,78.58
2023-05-22T21:55:58.554Z,78.58
2023-05-22T21:58:51.392Z,78.79
2023-05-22T22:01:44.208Z,79.05
2023-05-22T22:04:38.551Z,79.02
2023-05-22T22:07:31.543Z,78.95
2023-05-22T22:10:24.392Z,79.04
2023-05-22T22:13:17.165Z,79.34
2023-05-22T22:16:10.104Z,79.47
2023-05-22T22:19:04.125Z,79.47
2023-05-22T22:21:57.111Z,79.74
2023-05-22T22:24:49.794Z,80.17
2023-05-22T22:27:42.943Z,80.47
2023-05-22T22:30:28.604Z,80.47
2023-05-22T22:33:21.286Z,80.73
2023-05-22T22:36:14.115Z,80.60
2023-05-22T22:39:07.371Z,80.76
2023-05-22T22:42:04.379Z,80.76
2023-05-22T22:44:57.133Z,81.05
2023-05-22T22:47:49.760Z,81.07
2023-05-22T22:50:42.515Z,81.32
2023-05-22T22:53:35.530Z,81.42
2023-05-22T22:56:29.534Z,81.53
2023-05-22T22:59:16.558Z,81.89
2023-05-22T23:02:09.594Z,81.92
2023-05-22T23:05:03.356Z,81.90
2023-05-22T23:07:58.407Z,82.04
2023-05-22T23:10:51.296Z,82.32
2023-05-22T23:13:43.881Z,82.57
2023-05-22T23:16:38.572Z,82.93
2023-05-22T23:19:31.079Z,82.74
2023-05-22T23:22:24.190Z,83.15
2023-05-22T23:25:16.643Z,83.15
2023-05-22T23:28:10.092Z,83.16
2023-05-22T23:31:02.980Z,83.36
2023-05-22T23:33:56.366Z,83.53
2023-05-22T23:36:49.046Z,83.79
2023-05-22T23:39:42.492Z,84.00
2023-05-22T23:42:36.630Z,84.08
2023-05-22T23:45:30.944Z,84.51
2023-05-22T23:48:23.659Z,84.60
2023-05-22T23:51:17.871Z,84.43
2023-05-22T23:54:11.422Z,84.38
2023-05-22T23:57:05.787Z,84.52
2023-05-22T23:59:58.587Z,84.88
